createdAt,value
2018-06-14T00:00:48.136Z,99.90
2018-06-14T00:03:17.211Z,99.90
2018-06-14T00:05:46.283Z,99.90
2018-06-14T00:08:15.401Z,99.90
2018-06-14T00:10:44.451Z,99.90
2018-06-14T00:13:13.520Z,99.90
2018-06-14T00:15:42.724Z,99.90
2018-06-14T00:18:11.855Z,99.90
2018-06-14T00:20:40.887Z,99.90
2018-06-14T00:23:09.936Z,99.90
2018-06-14T00:25:39.040Z,99.90
2018-06-14T00:28:08.087Z,99.90
2018-06-14T00:30:37.140Z,99.90
2018-06-14T00:33:06.204Z,99.90
2018-06-14T00:35:35.279Z,99.90
2018-06-14T00:38:04.367Z,99.90
2018-06-14T00:40:33.454Z,99.90
2018-06-14T00:45:31.207Z,99.90
2018-06-14T00:48:00.271Z,99.90
2018-06-14T00:50:29.376Z,99.90
2018-06-14T00:52:58.467Z,99.90
2018-06-14T00:55:27.555Z,99.90
2018-06-14T00:57:56.671Z,99.90
2018-06-14T01:00:25.745Z,99.90
2018-06-14T01:02:54.792Z,99.90
2018-06-14T01:05:23.882Z,99.90
2018-06-14T01:07:53.127Z,99.90
2018-06-14T01:10:22.224Z,99.90
2018-06-14T01:12:51.295Z,99.90
2018-06-14T01:15:20.383Z,99.90
2018-06-14T01:17:49.439Z,99.90
2018-06-14T01:20:18.715Z,99.90
2018-06-14T01:22:47.868Z,99.90
2018-06-14T01:25:16.908Z,99.90
2018-06-14T01:27:46.055Z,99.90
2018-06-14T01:30:15.183Z,99.90
2018-06-14T01:32:44.262Z,99.90
2018-06-14T01:35:13.343Z,99.90
2018-06-14T01:37:53.939Z,99.90
2018-06-14T01:40:23.024Z,99.90
2018-06-14T01:42:52.094Z,99.90
2018-06-14T01:45:21.199Z,99.90
2018-06-14T01:47:50.290Z,99.90
2018-06-14T01:50:19.363Z,99.90
2018-06-14T01:52:48.434Z,99.90
2018-06-14T01:55:17.531Z,99.90
2018-06-14T01:57:46.628Z,99.90
2018-06-14T02:00:15.684Z,99.90
2018-06-14T02:02:44.783Z,99.90
2018-06-14T02:05:13.956Z,99.90
2018-06-14T02:07:43.030Z,99.90
2018-06-14T02:10:12.087Z,99.90
2018-06-14T02:12:41.167Z,99.90
2018-06-14T02:15:16.229Z,99.90
2018-06-14T02:17:45.291Z,99.90
2018-06-14T02:20:14.366Z,99.90
2018-06-14T02:22:43.466Z,99.90
2018-06-14T02:25:12.566Z,99.90
2018-06-14T02:27:41.623Z,99.90
2018-06-14T02:30:10.720Z,99.90
2018-06-14T02:32:39.803Z,99.90
2018-06-14T02:35:08.887Z,99.90
2018-06-14T02:37:42.059Z,99.90
2018-06-14T02:40:12.795Z,99.90
2018-06-14T02:42:42.912Z,99.90
2018-06-14T02:45:11.977Z,99.90
2018-06-14T02:47:41.207Z,99.90
2018-06-14T02:50:10.592Z,99.90
2018-06-14T02:52:39.670Z,99.90
2018-06-14T02:55:08.743Z,99.90
2018-06-14T02:57:37.824Z,99.90
2018-06-14T03:00:07.461Z,99.90
2018-06-14T03:02:36.528Z,99.90
2018-06-14T03:05:05.586Z,99.90
2018-06-14T03:07:35.707Z,99.90
2018-06-14T03:10:05.809Z,99.90
2018-06-14T03:12:34.866Z,99.90
2018-06-14T03:15:03.959Z,99.90
2018-06-14T03:17:33.064Z,99.90
2018-06-14T03:20:02.139Z,99.90
2018-06-14T03:22:31.246Z,99.90
2018-06-14T03:25:00.299Z,99.90
2018-06-14T03:27:29.371Z,99.90
2018-06-14T03:29:58.428Z,99.90
2018-06-14T03:32:27.536Z,99.90
2018-06-14T03:34:56.589Z,99.90
2018-06-14T03:37:25.669Z,99.90
2018-06-14T03:39:54.721Z,99.90
2018-06-14T03:42:23.790Z,99.90
2018-06-14T03:44:52.923Z,99.90
2018-06-14T03:47:21.972Z,99.90
2018-06-14T03:49:51.055Z,99.90
2018-06-14T03:52:20.107Z,99.90
2018-06-14T03:57:17.867Z,99.90
2018-06-14T03:59:46.921Z,99.90
2018-06-14T04:02:15.999Z,99.90
2018-06-14T04:04:45.102Z,99.90
2018-06-14T04:07:14.195Z,99.90
2018-06-14T04:09:43.271Z,99.90
2018-06-14T04:12:12.332Z,99.90
2018-06-14T04:14:41.431Z,99.90
2018-06-14T04:17:10.520Z,99.90
2018-06-14T04:19:39.595Z,99.90
2018-06-14T04:22:08.663Z,99.90
2018-06-14T04:24:37.736Z,99.90
2018-06-14T04:27:06.829Z,99.90
2018-06-14T04:29:35.902Z,99.90
2018-06-14T04:32:05.085Z,99.90
2018-06-14T04:34:34.172Z,99.90
2018-06-14T04:37:03.236Z,99.90
2018-06-14T04:39:32.410Z,99.90
2018-06-14T04:42:01.564Z,99.90
2018-06-14T04:44:30.685Z,99.90
2018-06-14T04:46:59.746Z,99.90
2018-06-14T04:49:28.812Z,99.90
2018-06-14T04:51:57.997Z,99.90
2018-06-14T04:54:27.085Z,99.90
2018-06-14T04:56:56.138Z,99.90
2018-06-14T04:59:25.229Z,99.90
2018-06-14T05:01:54.356Z,99.90
2018-06-14T05:04:23.418Z,99.90
2018-06-14T05:06:52.475Z,99.90
2018-06-14T05:09:21.547Z,99.90
2018-06-14T05:11:50.625Z,99.90
2018-06-14T05:14:19.734Z,99.90
2018-06-14T05:16:48.816Z,99.90
2018-06-14T05:19:17.855Z,99.90
2018-06-14T05:21:46.936Z,99.90
2018-06-14T05:24:16.016Z,99.90
2018-06-14T05:26:45.092Z,99.90
2018-06-14T05:29:14.211Z,99.90
2018-06-14T05:31:43.293Z,99.90
2018-06-14T05:34:12.354Z,99.90
2018-06-14T05:36:41.427Z,99.90
2018-06-14T05:39:12.163Z,99.90
2018-06-14T05:41:41.771Z,99.90
2018-06-14T05:44:11.071Z,99.90
2018-06-14T05:46:40.255Z,99.90
2018-06-14T05:49:09.379Z,99.90
2018-06-14T05:51:38.455Z,99.90
2018-06-14T05:54:07.546Z,99.90
2018-06-14T05:56:36.603Z,99.90
2018-06-14T05:59:05.688Z,99.90
2018-06-14T06:01:34.767Z,99.90
2018-06-14T06:04:03.878Z,99.90
2018-06-14T06:06:32.924Z,99.90
2018-06-14T06:09:02.068Z,99.90
2018-06-14T06:11:31.138Z,99.90
2018-06-14T06:14:00.271Z,99.90
2018-06-14T06:16:29.359Z,99.90
2018-06-14T06:18:58.424Z,99.90
2018-06-14T06:21:27.487Z,99.90
2018-06-14T06:23:56.548Z,99.90
2018-06-14T06:26:25.693Z,99.90
2018-06-14T06:28:54.676Z,99.90
2018-06-14T06:31:24.041Z,99.90
2018-06-14T06:33:53.425Z,99.90
2018-06-14T06:36:22.522Z,99.90
2018-06-14T06:38:51.621Z,99.90
2018-06-14T06:41:20.834Z,99.90
2018-06-14T06:43:49.909Z,99.90
2018-06-14T06:46:19.033Z,99.90
2018-06-14T06:48:48.128Z,99.90
2018-06-14T06:51:17.256Z,99.90
2018-06-14T06:53:46.298Z,99.90
2018-06-14T06:56:15.381Z,99.90
2018-06-14T06:58:44.536Z,99.80
2018-06-14T07:01:13.560Z,99.40
2018-06-14T07:03:42.631Z,99.30
2018-06-14T07:06:11.704Z,98.90
2018-06-14T07:08:40.755Z,99.20
2018-06-14T07:11:09.848Z,98.30
2018-06-14T07:13:38.911Z,97.80
2018-06-14T07:16:07.995Z,99.00
2018-06-14T07:18:37.065Z,97.70
2018-06-14T07:21:06.128Z,96.70
2018-06-14T07:23:35.210Z,96.80
2018-06-14T07:26:04.414Z,96.30
2018-06-14T07:28:33.452Z,96.00
2018-06-14T07:31:02.537Z,95.90
2018-06-14T07:33:31.628Z,97.80
2018-06-14T07:36:00.676Z,95.70
2018-06-14T07:38:29.751Z,95.50
2018-06-14T07:40:58.839Z,97.00
2018-06-14T07:45:56.603Z,96.10
2018-06-14T07:48:25.667Z,95.20
2018-06-14T07:50:55.596Z,95.90
2018-06-14T07:53:24.669Z,95.70
2018-06-14T07:55:53.735Z,95.40
2018-06-14T07:58:22.916Z,95.20
2018-06-14T08:00:52.195Z,96.10
2018-06-14T08:03:21.436Z,95.80
2018-06-14T08:05:50.515Z,95.40
2018-06-14T08:08:19.571Z,96.40
2018-06-14T08:10:48.662Z,96.60
2018-06-14T08:13:17.756Z,95.70
2018-06-14T08:15:46.840Z,95.70
2018-06-14T08:18:15.922Z,95.40
2018-06-14T08:20:44.980Z,96.20
2018-06-14T08:23:14.095Z,97.00
2018-06-14T08:25:43.184Z,96.70
2018-06-14T08:28:12.236Z,96.50
2018-06-14T08:30:41.285Z,96.60
2018-06-14T08:33:10.347Z,96.00
2018-06-14T08:35:39.415Z,96.90
2018-06-14T08:38:08.544Z,97.50
2018-06-14T08:40:37.852Z,97.90
2018-06-14T08:43:06.956Z,97.60
2018-06-14T08:45:36.048Z,97.40
2018-06-14T08:48:05.163Z,97.60
2018-06-14T08:50:34.207Z,97.20
2018-06-14T08:53:03.431Z,96.80
2018-06-14T08:55:32.869Z,96.30
2018-06-14T08:58:01.937Z,95.60
2018-06-14T09:00:30.991Z,95.30
2018-06-14T09:03:00.096Z,94.70
2018-06-14T09:05:29.130Z,94.40
2018-06-14T09:07:58.332Z,95.00
2018-06-14T09:10:27.428Z,94.40
2018-06-14T09:12:56.503Z,95.00
2018-06-14T09:15:25.691Z,94.00
2018-06-14T09:17:54.828Z,94.30
2018-06-14T09:20:23.885Z,94.00
2018-06-14T09:22:52.924Z,94.10
2018-06-14T09:25:22.040Z,94.00
2018-06-14T09:27:51.111Z,93.30
2018-06-14T09:30:20.375Z,92.90
2018-06-14T09:32:49.572Z,92.20
2018-06-14T09:35:18.635Z,91.40
2018-06-14T09:37:47.763Z,91.40
2018-06-14T09:40:16.855Z,91.40
2018-06-14T09:42:46.081Z,91.20
2018-06-14T09:45:15.140Z,90.40
2018-06-14T09:47:44.191Z,88.80
2018-06-14T09:50:13.295Z,88.70
2018-06-14T09:52:42.338Z,87.10
2018-06-14T09:55:11.445Z,88.00
2018-06-14T09:57:40.513Z,86.90
2018-06-14T10:00:09.593Z,86.10
2018-06-14T10:02:38.935Z,88.10
2018-06-14T10:05:08.191Z,86.50
2018-06-14T10:07:37.275Z,85.80
2018-06-14T10:10:06.347Z,89.60
2018-06-14T10:12:36.572Z,89.30
2018-06-14T10:15:05.954Z,88.50
2018-06-14T10:17:35.197Z,86.50
2018-06-14T10:20:04.339Z,88.50
2018-06-14T10:22:33.399Z,87.70
2018-06-14T10:25:02.476Z,86.70
2018-06-14T10:27:31.736Z,87.30
2018-06-14T10:30:00.855Z,87.80
2018-06-14T10:32:29.952Z,85.80
2018-06-14T10:34:58.984Z,87.40
2018-06-14T10:39:56.772Z,85.80
2018-06-14T10:42:25.861Z,84.70
2018-06-14T10:44:54.993Z,83.00
2018-06-14T10:47:24.054Z,85.20
2018-06-14T10:49:53.137Z,83.90
2018-06-14T10:52:22.294Z,84.30
2018-06-14T10:54:51.329Z,84.20
2018-06-14T10:57:20.432Z,85.00
2018-06-14T10:59:49.544Z,85.40
2018-06-14T11:04:43.195Z,85.70
2018-06-14T11:07:12.271Z,85.70
2018-06-14T11:09:41.382Z,86.90
2018-06-14T11:12:10.463Z,86.00
2018-06-14T11:14:39.612Z,86.50
2018-06-14T11:17:08.708Z,86.10
2018-06-14T11:19:37.796Z,87.10
2018-06-14T11:22:06.887Z,88.10
2018-06-14T11:24:35.987Z,88.10
2018-06-14T11:27:05.235Z,87.40
2018-06-14T11:29:34.465Z,86.00
2018-06-14T11:32:03.587Z,86.90
2018-06-14T11:34:32.707Z,86.40
2018-06-14T11:37:01.792Z,85.90
2018-06-14T11:39:31.010Z,86.80
2018-06-14T11:42:00.267Z,85.20
2018-06-14T11:44:29.324Z,86.20
2018-06-14T11:46:58.455Z,84.60
2018-06-14T11:49:27.522Z,86.20
2018-06-14T11:51:56.610Z,86.80
2018-06-14T11:54:25.676Z,86.90
2018-06-14T11:56:54.733Z,85.90
2018-06-14T11:59:23.889Z,85.10
2018-06-14T12:01:52.959Z,85.60
2018-06-14T12:04:22.054Z,86.30
2018-06-14T12:06:51.203Z,84.60
2018-06-14T12:09:20.343Z,86.40
2018-06-14T12:11:49.643Z,85.40
2018-06-14T12:14:18.743Z,84.20
2018-06-14T12:16:47.836Z,86.00
2018-06-14T12:19:17.024Z,87.10
2018-06-14T12:21:46.128Z,87.30
2018-06-14T12:24:15.178Z,87.20
2018-06-14T12:26:44.264Z,88.30
2018-06-14T12:29:13.336Z,87.80
2018-06-14T12:31:42.448Z,90.00
2018-06-14T12:34:11.519Z,87.40
2018-06-14T12:36:40.599Z,87.30
2018-06-14T12:39:09.784Z,88.90
2018-06-14T12:41:38.877Z,87.50
2018-06-14T12:44:08.324Z,87.60
2018-06-14T12:46:37.399Z,85.80
2018-06-14T12:49:06.468Z,86.70
2018-06-14T12:51:35.616Z,86.50
2018-06-14T12:54:05.787Z,87.20
2018-06-14T12:56:34.896Z,86.40
2018-06-14T12:59:03.992Z,86.20
2018-06-14T13:01:33.096Z,83.20
2018-06-14T13:04:02.244Z,81.90
2018-06-14T13:06:31.422Z,79.80
2018-06-14T13:09:00.477Z,81.70
2018-06-14T13:11:29.521Z,80.50
2018-06-14T13:13:58.647Z,81.30
2018-06-14T13:16:27.775Z,83.90
2018-06-14T13:18:56.942Z,80.60
2018-06-14T13:21:26.094Z,79.80
2018-06-14T13:23:55.220Z,79.90
2018-06-14T13:26:24.298Z,80.40
2018-06-14T13:28:53.423Z,80.50
2018-06-14T13:31:22.554Z,81.60
2018-06-14T13:33:51.731Z,80.70
2018-06-14T13:36:20.812Z,79.60
2018-06-14T13:38:49.885Z,80.00
2018-06-14T13:41:19.014Z,77.80
2018-06-14T13:43:48.092Z,78.30
2018-06-14T13:46:17.199Z,78.10
2018-06-14T13:48:46.422Z,77.40
2018-06-14T13:51:15.483Z,76.80
2018-06-14T13:53:44.571Z,76.20
2018-06-14T13:56:13.719Z,74.40
2018-06-14T13:58:42.868Z,77.50
2018-06-14T14:01:12.090Z,77.00
2018-06-14T14:03:41.043Z,76.50
2018-06-14T14:06:10.176Z,74.80
2018-06-14T14:08:39.307Z,75.90
2018-06-14T14:11:08.315Z,74.80
2018-06-14T14:13:37.414Z,75.40
2018-06-14T14:16:06.498Z,74.50
2018-06-14T14:18:35.537Z,75.70
2018-06-14T14:21:04.609Z,75.40
2018-06-14T14:23:33.689Z,76.00
2018-06-14T14:26:02.778Z,74.70
2018-06-14T14:28:32.099Z,75.40
2018-06-14T14:31:01.181Z,73.70
2018-06-14T14:33:31.127Z,74.70
2018-06-14T14:36:00.211Z,71.00
2018-06-14T14:38:29.608Z,72.00
2018-06-14T14:40:58.811Z,70.60
2018-06-14T14:43:27.911Z,70.80
2018-06-14T14:45:57.000Z,71.80
2018-06-14T14:48:26.032Z,71.00
2018-06-14T14:50:55.231Z,69.80
2018-06-14T14:53:24.323Z,70.30
2018-06-14T14:55:53.384Z,69.00
2018-06-14T14:58:22.573Z,69.10
2018-06-14T15:00:51.785Z,68.50
2018-06-14T15:03:20.859Z,68.30
2018-06-14T15:05:49.959Z,69.10
2018-06-14T15:08:19.035Z,68.30
2018-06-14T15:10:48.155Z,67.40
2018-06-14T15:13:17.215Z,65.80
2018-06-14T15:15:46.365Z,64.60
2018-06-14T15:18:15.453Z,62.90
2018-06-14T15:20:44.540Z,60.00
2018-06-14T15:23:13.664Z,59.60
2018-06-14T15:25:43.464Z,57.60
2018-06-14T15:28:12.608Z,56.00
2018-06-14T15:30:41.691Z,56.00
2018-06-14T15:33:10.807Z,51.20
2018-06-14T15:35:39.932Z,48.60
2018-06-14T15:38:09.031Z,48.40
2018-06-14T15:40:38.120Z,43.40
2018-06-14T15:45:35.916Z,41.80
2018-06-14T15:48:05.000Z,41.10
2018-06-14T15:50:34.053Z,39.80
2018-06-14T15:53:03.096Z,39.10
2018-06-14T15:55:45.028Z,39.50
2018-06-14T15:58:14.141Z,38.70
2018-06-14T16:00:43.345Z,38.60
2018-06-14T16:03:12.375Z,38.00
2018-06-14T16:05:41.472Z,37.30
2018-06-14T16:08:10.613Z,36.40
2018-06-14T16:10:39.681Z,36.00
2018-06-14T16:13:08.783Z,34.80
2018-06-14T16:15:37.885Z,34.00
2018-06-14T16:18:07.338Z,34.30
2018-06-14T16:20:36.575Z,34.80
2018-06-14T16:23:06.018Z,37.10
2018-06-14T16:25:35.160Z,37.90
2018-06-14T16:28:04.402Z,37.40
2018-06-14T16:30:33.690Z,37.60
2018-06-14T16:33:02.740Z,37.40
2018-06-14T16:35:31.823Z,36.60
2018-06-14T16:38:01.257Z,36.50
2018-06-14T16:40:30.519Z,35.70
2018-06-14T16:42:59.608Z,35.20
2018-06-14T16:45:28.655Z,36.00
2018-06-14T16:47:57.743Z,36.40
2018-06-14T16:50:26.839Z,36.90
2018-06-14T16:52:56.037Z,36.90
2018-06-14T16:55:25.100Z,38.10
2018-06-14T16:57:54.209Z,38.60
2018-06-14T17:00:23.298Z,39.80
2018-06-14T17:02:52.481Z,40.50
2018-06-14T17:05:21.581Z,41.00
2018-06-14T17:07:50.690Z,41.60
2018-06-14T17:10:19.782Z,42.80
2018-06-14T17:12:48.856Z,43.90
2018-06-14T17:15:18.166Z,45.50
2018-06-14T17:17:47.290Z,46.30
2018-06-14T17:20:16.366Z,47.10
2018-06-14T17:22:45.538Z,48.10
2018-06-14T17:25:14.615Z,49.20
2018-06-14T17:27:43.763Z,49.80
2018-06-14T17:30:13.003Z,50.50
2018-06-14T17:32:42.138Z,51.10
2018-06-14T17:35:11.494Z,51.90
2018-06-14T17:37:40.624Z,52.60
2018-06-14T17:40:09.733Z,53.10
2018-06-14T17:42:38.836Z,53.50
2018-06-14T17:45:07.911Z,53.90
2018-06-14T17:47:37.055Z,54.40
2018-06-14T17:50:06.315Z,55.00
2018-06-14T17:52:35.934Z,55.40
2018-06-14T17:55:05.380Z,55.60
2018-06-14T17:57:34.543Z,56.10
2018-06-14T18:00:03.871Z,56.30
2018-06-14T18:02:33.016Z,56.60
2018-06-14T18:05:02.816Z,57.30
2018-06-14T18:07:31.333Z,58.00
2018-06-14T18:10:00.590Z,58.60
2018-06-14T18:12:29.799Z,58.70
2018-06-14T18:14:58.929Z,59.20
2018-06-14T18:17:28.035Z,59.70
2018-06-14T18:19:57.190Z,59.70
2018-06-14T18:22:26.292Z,60.20
2018-06-14T18:24:55.391Z,60.80
2018-06-14T18:27:24.525Z,61.50
2018-06-14T18:29:53.602Z,62.20
2018-06-14T18:32:22.717Z,63.10
2018-06-14T18:34:51.904Z,63.80
2018-06-14T18:37:21.208Z,64.90
2018-06-14T18:39:50.594Z,65.80
2018-06-14T18:42:19.666Z,66.60
2018-06-14T18:44:48.883Z,67.20
2018-06-14T18:47:18.079Z,68.30
2018-06-14T18:49:47.210Z,69.10
2018-06-14T18:52:16.311Z,70.20
2018-06-14T18:54:45.619Z,70.40
2018-06-14T18:57:14.954Z,70.90
2018-06-14T18:59:44.107Z,70.60
2018-06-14T19:02:13.273Z,71.60
2018-06-14T19:04:42.538Z,70.60
2018-06-14T19:07:12.267Z,70.70
2018-06-14T19:09:41.461Z,70.70
2018-06-14T19:12:10.728Z,70.40
2018-06-14T19:14:39.808Z,70.90
2018-06-14T19:17:09.064Z,76.60
2018-06-14T19:19:38.397Z,84.30
2018-06-14T19:22:07.559Z,91.10
2018-06-14T19:24:36.659Z,95.50
2018-06-14T19:27:06.037Z,99.30
2018-06-14T19:29:35.161Z,99.90
2018-06-14T19:32:04.264Z,99.90
2018-06-14T19:34:33.327Z,99.90
2018-06-14T19:37:02.467Z,99.90
2018-06-14T19:39:31.654Z,99.90
2018-06-14T19:42:00.760Z,99.90
2018-06-14T19:44:29.937Z,99.90
2018-06-14T19:46:59.531Z,99.90
2018-06-14T19:49:28.604Z,99.90
2018-06-14T19:51:57.680Z,99.90
2018-06-14T19:54:27.627Z,99.90
2018-06-14T19:56:56.708Z,99.90
2018-06-14T19:59:25.823Z,99.90
2018-06-14T20:01:54.940Z,99.90
2018-06-14T20:04:24.027Z,99.90
2018-06-14T20:06:53.127Z,99.90
2018-06-14T20:09:22.338Z,99.90
2018-06-14T20:11:51.443Z,99.90
2018-06-14T20:14:20.524Z,99.90
2018-06-14T20:16:49.618Z,99.90
2018-06-14T20:19:18.715Z,99.90
2018-06-14T20:21:47.811Z,99.90
2018-06-14T20:24:16.910Z,99.90
2018-06-14T20:26:45.967Z,99.90
2018-06-14T20:29:15.071Z,99.90
2018-06-14T20:31:44.139Z,99.90
2018-06-14T20:34:13.279Z,99.90
2018-06-14T20:36:42.394Z,99.90
2018-06-14T20:39:13.059Z,99.90
2018-06-14T20:41:42.186Z,99.90
2018-06-14T20:44:11.239Z,99.90
2018-06-14T20:46:40.311Z,99.90
2018-06-14T20:49:09.461Z,99.90
2018-06-14T20:51:38.612Z,99.90
2018-06-14T20:54:07.699Z,99.90
2018-06-14T20:56:36.820Z,99.90
2018-06-14T20:59:05.936Z,99.90
2018-06-14T21:01:35.088Z,99.90
2018-06-14T21:04:04.162Z,99.90
2018-06-14T21:06:33.251Z,99.90
2018-06-14T21:09:02.387Z,99.90
2018-06-14T21:11:31.474Z,99.90
2018-06-14T21:14:00.569Z,99.90
2018-06-14T21:16:29.695Z,99.90
2018-06-14T21:18:58.776Z,99.90
2018-06-14T21:21:27.852Z,99.90
2018-06-14T21:23:56.972Z,99.90
2018-06-14T21:26:26.054Z,99.90
2018-06-14T21:28:55.386Z,99.90
2018-06-14T21:31:24.439Z,99.90
2018-06-14T21:33:53.699Z,99.90
2018-06-14T21:36:22.869Z,99.90
2018-06-14T21:38:52.041Z,99.90
2018-06-14T21:41:21.133Z,99.90
2018-06-14T21:43:50.213Z,99.90
2018-06-14T21:46:19.287Z,99.90
2018-06-14T21:48:48.370Z,99.90
2018-06-14T21:51:17.459Z,99.90
2018-06-14T21:53:46.527Z,99.90
2018-06-14T21:56:15.708Z,99.90
2018-06-14T21:58:44.785Z,99.90
2018-06-14T22:01:13.844Z,99.90
2018-06-14T22:03:48.466Z,99.90
2018-06-14T22:08:46.151Z,99.90
2018-06-14T22:11:15.213Z,99.90
2018-06-14T22:13:44.315Z,99.90
2018-06-14T22:16:13.388Z,99.90
2018-06-14T22:21:11.507Z,99.90
2018-06-14T22:23:40.591Z,99.90
2018-06-14T22:26:09.710Z,99.90
2018-06-14T22:28:38.804Z,99.90
2018-06-14T22:31:08.017Z,99.90
2018-06-14T22:33:48.454Z,99.90
2018-06-14T22:36:17.748Z,99.90
2018-06-14T22:38:47.135Z,99.90
2018-06-14T22:41:16.247Z,99.90
2018-06-14T22:43:45.340Z,99.90
2018-06-14T22:46:14.425Z,99.90
2018-06-14T22:48:43.515Z,99.90
2018-06-14T22:51:15.108Z,99.90
2018-06-14T22:53:44.301Z,99.90
2018-06-14T22:56:13.477Z,99.90
2018-06-14T22:58:42.609Z,99.90
2018-06-14T23:01:32.056Z,99.90
2018-06-14T23:04:01.744Z,99.90
2018-06-14T23:06:30.905Z,99.90
2018-06-14T23:09:00.922Z,99.90
2018-06-14T23:11:29.995Z,99.90
2018-06-14T23:13:59.083Z,99.90
2018-06-14T23:16:28.180Z,99.90
2018-06-14T23:18:57.355Z,99.90
2018-06-14T23:21:26.547Z,99.90
2018-06-14T23:23:55.648Z,99.90
2018-06-14T23:26:24.747Z,99.90
2018-06-14T23:28:53.803Z,99.90
2018-06-14T23:31:22.889Z,99.90
2018-06-14T23:33:51.951Z,99.90
2018-06-14T23:36:21.052Z,99.90
2018-06-14T23:38:50.168Z,99.90
2018-06-14T23:41:19.294Z,99.90
2018-06-14T23:43:48.364Z,99.90
2018-06-14T23:46:17.471Z,99.90
2018-06-14T23:48:46.826Z,99.90
2018-06-14T23:51:15.923Z,99.90
2018-06-14T23:53:45.001Z,99.90
2018-06-14T23:56:14.070Z,99.90
2018-06-14T23:58:43.416Z,99.90
